sensor_id;sensor_type;location;lat;lon;timestamp;P1;durP1;ratioP1;P2;durP2;ratioP2
59052;SDS011;44843;44.728;10.396;2022-07-23T00:01:02;11.05;;;6.47;;
59052;SDS011;44843;44.728;10.396;2022-07-23T00:03:27;7.30;;;5.95;;
59052;SDS011;44843;44.728;10.396;2022-07-23T00:05:53;8.02;;;7.18;;
59052;SDS011;44843;44.728;10.396;2022-07-23T00:08:18;9.07;;;5.70;;
59052;SDS011;44843;44.728;10.396;2022-07-23T00:10:44;6.68;;;5.97;;
59052;SDS011;44843;44.728;10.396;2022-07-23T00:13:09;10.80;;;6.15;;
59052;SDS011;44843;44.728;10.396;2022-07-23T00:15:35;6.63;;;5.78;;
59052;SDS011;44843;44.728;10.396;2022-07-23T00:18:00;9.15;;;6.38;;
59052;SDS011;44843;44.728;10.396;2022-07-23T00:20:26;6.18;;;5.57;;
59052;SDS011;44843;44.728;10.396;2022-07-23T00:22:52;7.35;;;5.70;;
59052;SDS011;44843;44.728;10.396;2022-07-23T00:25:19;8.90;;;5.85;;
59052;SDS011;44843;44.728;10.396;2022-07-23T00:27:46;7.32;;;5.97;;
59052;SDS011;44843;44.728;10.396;2022-07-23T00:30:11;9.90;;;6.22;;
59052;SDS011;44843;44.728;10.396;2022-07-23T00:32:51;10.20;;;6.43;;
59052;SDS011;44843;44.728;10.396;2022-07-23T00:35:21;10.93;;;6.20;;
59052;SDS011;44843;44.728;10.396;2022-07-23T00:37:48;10.43;;;5.93;;
59052;SDS011;44843;44.728;10.396;2022-07-23T00:40:13;11.65;;;5.70;;
59052;SDS011;44843;44.728;10.396;2022-07-23T00:45:05;11.82;;;6.68;;
59052;SDS011;44843;44.728;10.396;2022-07-23T00:47:31;8.73;;;6.20;;
59052;SDS011;44843;44.728;10.396;2022-07-23T00:49:57;7.93;;;6.78;;
59052;SDS011;44843;44.728;10.396;2022-07-23T00:52:23;13.73;;;8.17;;
59052;SDS011;44843;44.728;10.396;2022-07-23T00:54:48;9.40;;;7.18;;
59052;SDS011;44843;44.728;10.396;2022-07-23T00:57:14;9.70;;;7.60;;
59052;SDS011;44843;44.728;10.396;2022-07-23T00:59:41;10.32;;;7.20;;
59052;SDS011;44843;44.728;10.396;2022-07-23T01:02:06;8.88;;;7.25;;
59052;SDS011;44843;44.728;10.396;2022-07-23T01:04:32;11.48;;;7.18;;
59052;SDS011;44843;44.728;10.396;2022-07-23T01:06:57;8.95;;;6.30;;
59052;SDS011;44843;44.728;10.396;2022-07-23T01:09:23;10.32;;;6.10;;
59052;SDS011;44843;44.728;10.396;2022-07-23T01:11:49;8.80;;;6.10;;
59052;SDS011;44843;44.728;10.396;2022-07-23T01:14:17;8.07;;;5.80;;
59052;SDS011;44843;44.728;10.396;2022-07-23T01:16:44;7.90;;;6.38;;
59052;SDS011;44843;44.728;10.396;2022-07-23T01:19:12;8.25;;;5.97;;
59052;SDS011;44843;44.728;10.396;2022-07-23T01:21:39;10.15;;;6.72;;
59052;SDS011;44843;44.728;10.396;2022-07-23T01:24:06;8.18;;;5.50;;
59052;SDS011;44843;44.728;10.396;2022-07-23T01:26:32;10.05;;;6.85;;
59052;SDS011;44843;44.728;10.396;2022-07-23T01:28:58;11.55;;;7.22;;
59052;SDS011;44843;44.728;10.396;2022-07-23T01:31:23;7.15;;;6.30;;
59052;SDS011;44843;44.728;10.396;2022-07-23T01:33:49;9.63;;;6.63;;
59052;SDS011;44843;44.728;10.396;2022-07-23T01:36:14;8.25;;;6.60;;
59052;SDS011;44843;44.728;10.396;2022-07-23T01:38:40;11.00;;;6.78;;
59052;SDS011;44843;44.728;10.396;2022-07-23T01:41:05;11.38;;;6.63;;
59052;SDS011;44843;44.728;10.396;2022-07-23T01:43:31;7.65;;;5.57;;
59052;SDS011;44843;44.728;10.396;2022-07-23T01:45:56;11.45;;;5.68;;
59052;SDS011;44843;44.728;10.396;2022-07-23T01:48:21;8.82;;;5.78;;
59052;SDS011;44843;44.728;10.396;2022-07-23T01:50:47;8.00;;;5.72;;
59052;SDS011;44843;44.728;10.396;2022-07-23T01:53:13;8.63;;;5.38;;
59052;SDS011;44843;44.728;10.396;2022-07-23T01:55:39;10.85;;;5.57;;
59052;SDS011;44843;44.728;10.396;2022-07-23T01:58:04;8.85;;;5.78;;
59052;SDS011;44843;44.728;10.396;2022-07-23T02:00:30;6.20;;;5.40;;
59052;SDS011;44843;44.728;10.396;2022-07-23T02:02:56;8.55;;;5.35;;
59052;SDS011;44843;44.728;10.396;2022-07-23T02:05:23;8.43;;;5.97;;
59052;SDS011;44843;44.728;10.396;2022-07-23T02:07:49;11.55;;;5.47;;
59052;SDS011;44843;44.728;10.396;2022-07-23T02:10:14;6.72;;;5.50;;
59052;SDS011;44843;44.728;10.396;2022-07-23T02:12:40;7.22;;;6.05;;
59052;SDS011;44843;44.728;10.396;2022-07-23T02:15:08;6.57;;;5.30;;
59052;SDS011;44843;44.728;10.396;2022-07-23T02:17:42;7.93;;;5.53;;
59052;SDS011;44843;44.728;10.396;2022-07-23T02:20:10;8.50;;;5.30;;
59052;SDS011;44843;44.728;10.396;2022-07-23T02:22:36;8.60;;;5.30;;
59052;SDS011;44843;44.728;10.396;2022-07-23T02:25:02;7.82;;;5.45;;
59052;SDS011;44843;44.728;10.396;2022-07-23T06:00:47;11.50;;;5.47;;
59052;SDS011;44843;44.728;10.396;2022-07-23T06:03:12;15.90;;;6.10;;
59052;SDS011;44843;44.728;10.396;2022-07-23T06:05:38;10.52;;;6.18;;
59052;SDS011;44843;44.728;10.396;2022-07-23T06:08:03;9.70;;;6.25;;
59052;SDS011;44843;44.728;10.396;2022-07-23T06:10:29;7.97;;;6.07;;
59052;SDS011;44843;44.728;10.396;2022-07-23T06:12:54;13.98;;;6.40;;
59052;SDS011;44843;44.728;10.396;2022-07-23T06:15:19;14.23;;;5.50;;
59052;SDS011;44843;44.728;10.396;2022-07-23T06:17:45;11.77;;;6.40;;
59052;SDS011;44843;44.728;10.396;2022-07-23T06:20:10;13.82;;;5.85;;
59052;SDS011;44843;44.728;10.396;2022-07-23T06:22:36;11.75;;;6.10;;
59052;SDS011;44843;44.728;10.396;2022-07-23T06:25:02;12.20;;;6.45;;
59052;SDS011;44843;44.728;10.396;2022-07-23T06:27:27;14.65;;;6.65;;
59052;SDS011;44843;44.728;10.396;2022-07-23T06:29:53;9.57;;;6.40;;
59052;SDS011;44843;44.728;10.396;2022-07-23T06:32:18;10.63;;;6.30;;
59052;SDS011;44843;44.728;10.396;2022-07-23T06:34:44;9.27;;;6.20;;
59052;SDS011;44843;44.728;10.396;2022-07-23T06:37:10;10.25;;;6.07;;
59052;SDS011;44843;44.728;10.396;2022-07-23T06:39:35;7.75;;;6.07;;
59052;SDS011;44843;44.728;10.396;2022-07-23T06:42:00;10.45;;;5.70;;
59052;SDS011;44843;44.728;10.396;2022-07-23T06:44:26;8.77;;;5.55;;
59052;SDS011;44843;44.728;10.396;2022-07-23T06:46:52;8.50;;;6.10;;
59052;SDS011;44843;44.728;10.396;2022-07-23T06:49:17;17.25;;;6.40;;
59052;SDS011;44843;44.728;10.396;2022-07-23T06:51:43;7.60;;;5.50;;
59052;SDS011;44843;44.728;10.396;2022-07-23T06:54:08;8.73;;;5.32;;
59052;SDS011;44843;44.728;10.396;2022-07-23T06:56:34;10.30;;;6.03;;
59052;SDS011;44843;44.728;10.396;2022-07-23T06:58:59;12.25;;;6.00;;
59052;SDS011;44843;44.728;10.396;2022-07-23T07:01:24;12.27;;;6.40;;
59052;SDS011;44843;44.728;10.396;2022-07-23T07:03:50;11.70;;;6.43;;
59052;SDS011;44843;44.728;10.396;2022-07-23T07:06:16;9.52;;;5.22;;
59052;SDS011;44843;44.728;10.396;2022-07-23T07:08:41;7.40;;;5.47;;
59052;SDS011;44843;44.728;10.396;2022-07-23T07:11:08;8.32;;;5.38;;
59052;SDS011;44843;44.728;10.396;2022-07-23T07:13:34;6.18;;;4.40;;
59052;SDS011;44843;44.728;10.396;2022-07-23T07:16:00;7.20;;;4.85;;
59052;SDS011;44843;44.728;10.396;2022-07-23T07:18:25;8.15;;;5.00;;
59052;SDS011;44843;44.728;10.396;2022-07-23T07:20:50;6.75;;;5.07;;
59052;SDS011;44843;44.728;10.396;2022-07-23T07:23:16;11.45;;;5.43;;
59052;SDS011;44843;44.728;10.396;2022-07-23T07:25:41;7.60;;;5.15;;
59052;SDS011;44843;44.728;10.396;2022-07-23T07:28:07;9.02;;;5.03;;
59052;SDS011;44843;44.728;10.396;2022-07-23T07:30:32;7.00;;;5.13;;
59052;SDS011;44843;44.728;10.396;2022-07-23T07:32:58;6.07;;;4.82;;
59052;SDS011;44843;44.728;10.396;2022-07-23T07:35:23;9.05;;;4.85;;
